Woodstock, Virginia
Current Conditions -  °F | °C
As of 7:55 PM on Saturday 25 Oct 2014 (Local Time) from KFRR Reporting Station
Clear Clear  
Wind Chill: 15°   Ceiling: Unl
Heat Index: 15°   Visibility: 10mi
Dew Point:   Wind: 3mph
Humidity: 59%   Direction: 180°S
Pressure: 29.75"   Gusts: NA
Location:  38.88°N, 78.51°W
Report Text: KFRR 252355Z AUTO 18003KT 10SM CLR 15/07 A2975 RMK AO1
Loading
Personal Weather Stations






























Interactive Weather Map
Tropical Storm Tracking
New forecast layout! Learn more

10-Day Weather Forecast

Advertisements
Track Severe Weather on mobile